Kezdőlap
METAR-TAF:

METAR-TAF

Repülőterek :

Athén, Görögország

Elefthériosz Venizélosz nemzetközi repülőtér

földrajzi szélesség: 37-56N, földrajzi hosszúság: 023-56E, magasság: 94 m

Jelenlegi meteorológiai megfigyelések

A jelentés 35 perccel ezelõtt készült, 18:20 UTC
Nyugat-délnyugati szél 2 kt
Hőmérséklet 21°C
Páratartalom 49%
Légköri nyomás 1012 hPa
Látótávolság 10 km, vagy több
felhőtlen 1500 m magasságban, és nincs gomolyfelhõ

METAR: LGAV 261820Z 24002KT CAVOK 21/10 Q1012 NOSIG

Idő: 21:55 (18:55 UTC)

Előrejelzés

A jelentés 1 órával és 55 perccel ezelõtt készült, 17:00 UTC
Az előrejelzés 26-én 18 óra UTC és 27-én 18 óra UTC között érvényes
Különbözõ irányokból fújó szél 5 kt
Látótávolság 10 km, vagy több
Kevés felhő 2000 lábon
27-én 06 óra UTC és 27-én 08 óra UTC között fokozatosan kialakuló
Észak-északkeleti szél 10 kt

TAF: LGAV 261700Z 2618/2718 VRB05KT 9999 FEW020 BECMG 2706/2708 03010KT

Meteorológiai megfigyelések és előrejelzések több, mint 4000 repülőtéren (METAR és TAF jelentéseket).

A térképen piros és sárga pontok jelzik az elérhető meteorológiai állomásokat.

Mozgassa az egeret a pont fölött, hogy megjelenjen az állomás neve.

Azután kattintson az időjárási megfigyelések és előrejelzések megtekintéséhez.

A térkép megváltoztatása: kattintson a fekete keresztel jelölt zöld gombra ráközelítéshez, a vonallal jelölt zöld gombra távolításhoz, vagy a zöld nyilakra a szomszédos térképek eléréséhez.


METAR-TAF: